createdAt,value
2019-04-06T00:00:32.883Z,15.43
2019-04-06T00:03:01.489Z,14.83
2019-04-06T00:05:30.602Z,15.73
2019-04-06T00:07:59.256Z,16.07
2019-04-06T00:10:27.887Z,14.23
2019-04-06T00:12:56.473Z,15.53
2019-04-06T00:15:25.160Z,17.33
2019-04-06T00:17:53.759Z,16.40
2019-04-06T00:20:22.383Z,15.20
2019-04-06T00:22:50.940Z,15.83
2019-04-06T00:25:19.627Z,15.43
2019-04-06T00:27:48.374Z,16.47
2019-04-06T00:30:18.203Z,15.50
2019-04-06T00:32:54.442Z,14.17
2019-04-06T00:35:23.100Z,14.57
2019-04-06T00:37:51.839Z,14.50
2019-04-06T00:40:20.420Z,14.30
2019-04-06T00:42:48.975Z,14.77
2019-04-06T00:45:17.652Z,13.50
2019-04-06T00:47:46.239Z,15.33
2019-04-06T00:50:15.993Z,15.00
2019-04-06T00:52:44.675Z,16.80
2019-04-06T00:55:13.307Z,16.47
2019-04-06T00:57:41.903Z,15.70
2019-04-06T01:00:31.667Z,16.63
2019-04-06T01:03:00.390Z,15.73
2019-04-06T01:05:29.527Z,16.27
2019-04-06T01:07:58.199Z,14.50
2019-04-06T01:10:26.894Z,14.90
2019-04-06T01:12:55.608Z,14.97
2019-04-06T01:15:24.263Z,15.80
2019-04-06T01:17:52.869Z,16.03
2019-04-06T01:20:21.460Z,15.10
2019-04-06T01:22:50.054Z,13.67
2019-04-06T01:25:18.841Z,13.53
2019-04-06T01:27:47.355Z,14.03
2019-04-06T01:30:16.064Z,14.03
2019-04-06T01:32:44.731Z,14.40
2019-04-06T01:35:13.381Z,15.20
2019-04-06T01:37:42.056Z,14.83
2019-04-06T01:40:11.062Z,16.47
2019-04-06T01:42:39.970Z,15.27
2019-04-06T01:45:08.707Z,16.07
2019-04-06T01:47:37.314Z,17.20
2019-04-06T01:50:06.276Z,16.70
2019-04-06T01:52:35.001Z,15.70
2019-04-06T01:55:21.156Z,15.60
2019-04-06T01:57:49.721Z,16.10
2019-04-06T02:00:18.632Z,15.53
2019-04-06T02:02:57.387Z,16.17
2019-04-06T02:05:26.048Z,15.30
2019-04-06T02:07:54.627Z,16.70
2019-04-06T02:10:23.304Z,16.73
2019-04-06T02:12:53.122Z,16.20
2019-04-06T02:15:21.882Z,15.93
2019-04-06T02:17:50.537Z,15.03
2019-04-06T02:20:19.150Z,16.43
2019-04-06T02:22:47.763Z,16.07
2019-04-06T02:25:16.489Z,16.03
2019-04-06T02:27:45.078Z,16.03
2019-04-06T02:30:30.486Z,17.50
2019-04-06T02:33:00.675Z,16.53
2019-04-06T02:35:49.127Z,16.83
2019-04-06T02:38:38.743Z,17.47
2019-04-06T02:41:37.526Z,16.47
2019-04-06T02:44:06.317Z,15.77
2019-04-06T02:46:35.348Z,17.03
2019-04-06T02:49:04.373Z,15.67
2019-04-06T02:51:33.042Z,16.20
2019-04-06T02:54:01.644Z,15.97
2019-04-06T02:56:45.095Z,16.90
2019-04-06T02:59:00.635Z,17.20
2019-04-06T03:01:29.309Z,15.70
2019-04-06T03:03:58.036Z,14.80
2019-04-06T03:06:26.589Z,16.10
2019-04-06T03:08:55.623Z,17.20
2019-04-06T03:11:24.379Z,17.23
2019-04-06T03:13:53.514Z,16.33
2019-04-06T03:16:22.332Z,18.50
2019-04-06T03:18:50.965Z,17.10
2019-04-06T03:21:19.579Z,16.97
2019-04-06T03:23:51.119Z,15.83
2019-04-06T03:26:18.761Z,16.43
2019-04-06T03:28:47.708Z,18.97
2019-04-06T03:31:16.401Z,16.53
2019-04-06T03:33:45.184Z,17.57
2019-04-06T03:36:13.795Z,18.37
2019-04-06T03:38:42.614Z,18.37
2019-04-06T03:41:11.328Z,18.07
2019-04-06T03:43:39.935Z,17.07
2019-04-06T03:46:08.495Z,18.13
2019-04-06T03:48:37.204Z,17.67
2019-04-06T03:51:05.914Z,17.60
2019-04-06T03:53:34.480Z,17.63
2019-04-06T03:56:03.401Z,17.27
2019-04-06T03:58:32.284Z,16.57
2019-04-06T04:01:00.890Z,17.33
2019-04-06T04:03:29.496Z,17.83
2019-04-06T04:05:58.311Z,16.57
2019-04-06T04:08:26.913Z,16.73
2019-04-06T04:10:55.701Z,16.57
2019-04-06T04:13:24.411Z,17.33
2019-04-06T04:15:56.537Z,18.57
2019-04-06T04:18:24.413Z,18.37
2019-04-06T04:20:53.131Z,19.27
2019-04-06T04:23:21.699Z,19.23
2019-04-06T04:25:50.370Z,17.27
2019-04-06T04:28:18.988Z,17.83
2019-04-06T04:30:47.588Z,18.70
2019-04-06T04:33:16.251Z,18.37
2019-04-06T04:35:45.733Z,17.97
2019-04-06T04:38:14.511Z,17.43
2019-04-06T04:40:43.177Z,16.63
2019-04-06T04:43:11.780Z,16.60
2019-04-06T04:45:40.395Z,17.50
2019-04-06T04:48:08.972Z,18.37
2019-04-06T04:50:37.708Z,17.43
2019-04-06T04:53:06.743Z,17.27
2019-04-06T04:55:35.546Z,18.30
2019-04-06T04:58:04.368Z,17.57
2019-04-06T05:00:32.967Z,17.53
2019-04-06T05:03:01.699Z,18.57
2019-04-06T05:05:30.500Z,18.43
2019-04-06T05:07:59.249Z,17.27
2019-04-06T05:10:28.123Z,17.80
2019-04-06T05:12:56.733Z,17.53
2019-04-06T05:15:47.992Z,17.87
2019-04-06T05:18:16.816Z,18.17
2019-04-06T05:20:45.687Z,19.20
2019-04-06T05:23:14.463Z,19.23
2019-04-06T05:25:43.162Z,18.87
2019-04-06T05:28:11.845Z,18.57
2019-04-06T05:30:40.646Z,20.80
2019-04-06T05:33:09.441Z,19.63
2019-04-06T05:35:38.312Z,18.27
2019-04-06T05:38:07.191Z,20.30
2019-04-06T05:40:35.888Z,18.77
2019-04-06T05:43:04.668Z,21.00
2019-04-06T05:45:33.243Z,20.60
2019-04-06T05:48:03.711Z,20.03
2019-04-06T05:50:32.322Z,18.57
2019-04-06T05:53:00.981Z,18.40
2019-04-06T05:55:29.666Z,19.63
2019-04-06T05:58:04.360Z,19.23
2019-04-06T06:00:28.885Z,19.33
2019-04-06T06:02:57.515Z,18.60
2019-04-06T06:05:26.076Z,18.87
2019-04-06T06:07:54.708Z,18.83
2019-04-06T06:10:23.320Z,18.33
2019-04-06T06:12:52.075Z,19.00
2019-04-06T06:15:20.830Z,18.67
2019-04-06T06:17:49.665Z,19.60
2019-04-06T06:20:18.255Z,18.27
2019-04-06T06:22:46.989Z,19.47
2019-04-06T06:25:16.240Z,19.63
2019-04-06T06:27:45.151Z,19.53
2019-04-06T06:30:14.384Z,18.80
2019-04-06T06:32:43.666Z,19.23
2019-04-06T06:35:12.574Z,19.70
2019-04-06T06:37:41.263Z,20.30
2019-04-06T06:40:10.604Z,19.10
2019-04-06T06:42:39.347Z,21.60
2019-04-06T06:45:08.658Z,18.97
2019-04-06T06:47:37.509Z,21.53
2019-04-06T06:50:07.810Z,21.73
2019-04-06T06:52:36.386Z,21.87
2019-04-06T06:55:06.973Z,22.53
2019-04-06T06:57:35.604Z,23.57
2019-04-06T07:00:06.211Z,21.93
2019-04-06T07:02:34.820Z,23.03
2019-04-06T07:05:04.333Z,21.87
2019-04-06T07:07:32.997Z,20.90
2019-04-06T07:10:05.777Z,22.63
2019-04-06T07:12:32.300Z,21.73
2019-04-06T07:15:01.083Z,22.00
2019-04-06T07:17:50.656Z,22.40
2019-04-06T07:20:19.647Z,22.27
2019-04-06T07:22:48.437Z,20.93
2019-04-06T07:25:17.059Z,23.23
2019-04-06T07:27:45.808Z,21.60
2019-04-06T07:30:16.498Z,23.30
2019-04-06T07:32:52.543Z,22.97
2019-04-06T07:35:21.303Z,22.47
2019-04-06T07:37:50.092Z,23.27
2019-04-06T07:40:18.952Z,22.83
2019-04-06T07:42:47.866Z,22.93
2019-04-06T07:45:36.320Z,21.90
2019-04-06T07:48:05.546Z,21.30
2019-04-06T07:50:34.409Z,23.97
2019-04-06T07:53:03.081Z,22.97
2019-04-06T07:55:31.704Z,23.40
2019-04-06T07:58:00.265Z,22.20
2019-04-06T08:00:29.451Z,24.57
2019-04-06T08:02:59.372Z,22.47
2019-04-06T08:05:28.376Z,23.67
2019-04-06T08:07:57.302Z,23.03
2019-04-06T08:10:25.869Z,23.87
2019-04-06T08:13:13.786Z,24.00
2019-04-06T08:15:42.606Z,23.07
2019-04-06T08:18:11.259Z,22.90
2019-04-06T08:20:40.653Z,22.43
2019-04-06T08:23:09.245Z,24.37
2019-04-06T08:25:37.955Z,24.67
2019-04-06T08:28:06.823Z,24.43
2019-04-06T08:30:44.714Z,24.20
2019-04-06T08:33:05.960Z,24.37
2019-04-06T08:35:34.858Z,24.37
2019-04-06T08:38:03.645Z,24.53
2019-04-06T08:40:32.256Z,26.37
2019-04-06T08:43:00.892Z,26.13
2019-04-06T08:45:29.735Z,24.73
2019-04-06T08:47:58.771Z,24.90
2019-04-06T08:50:28.125Z,24.80
2019-04-06T08:52:56.751Z,24.50
2019-04-06T08:55:25.725Z,25.10
2019-04-06T08:57:54.453Z,25.40
2019-04-06T09:00:42.474Z,26.03
2019-04-06T09:03:30.501Z,26.23
2019-04-06T09:05:59.072Z,25.67
2019-04-06T09:08:27.702Z,24.33
2019-04-06T09:10:56.271Z,25.63
2019-04-06T09:13:26.082Z,26.87
2019-04-06T09:15:54.702Z,28.43
2019-04-06T09:18:23.344Z,25.57
2019-04-06T09:20:52.296Z,25.87
2019-04-06T09:23:21.257Z,25.60
2019-04-06T09:25:51.957Z,25.67
2019-04-06T09:28:21.790Z,26.07
2019-04-06T09:30:50.658Z,26.17
2019-04-06T09:33:19.636Z,26.70
2019-04-06T09:35:48.330Z,26.13
2019-04-06T09:38:19.695Z,24.93
2019-04-06T09:40:49.607Z,24.57
2019-04-06T09:43:19.260Z,22.97
2019-04-06T09:45:55.452Z,23.27
2019-04-06T09:48:25.668Z,22.23
2019-04-06T09:51:12.094Z,21.97
2019-04-06T09:54:05.636Z,21.20
2019-04-06T09:56:42.112Z,20.43
2019-04-06T09:59:12.387Z,18.87
2019-04-06T10:01:42.659Z,13.07
2019-04-06T10:04:22.676Z,12.13
2019-04-06T10:06:54.104Z,12.43
2019-04-06T10:09:40.861Z,12.93
2019-04-06T10:12:22.799Z,12.20
2019-04-06T10:14:53.087Z,12.77
2019-04-06T10:17:38.210Z,12.93
2019-04-06T10:20:26.690Z,13.27
2019-04-06T10:23:02.621Z,13.93
2019-04-06T10:25:47.896Z,15.93
2019-04-06T10:28:23.892Z,20.33
2019-04-06T10:31:31.735Z,21.63
2019-04-06T10:34:08.065Z,20.87
2019-04-06T10:36:44.213Z,20.63
2019-04-06T10:39:23.432Z,20.10
2019-04-06T10:42:06.066Z,18.97
2019-04-06T10:44:36.488Z,18.83
2019-04-06T10:47:12.847Z,14.90
2019-04-06T10:49:43.042Z,12.40
2019-04-06T10:52:13.372Z,12.63
2019-04-06T10:54:52.381Z,11.90
2019-04-06T10:57:31.713Z,11.43
2019-04-06T11:00:07.749Z,12.03
2019-04-06T11:02:38.199Z,11.63
2019-04-06T11:05:09.208Z,11.37
2019-04-06T11:07:48.552Z,11.77
2019-04-06T11:10:25.123Z,11.57
2019-04-06T11:13:11.655Z,12.00
2019-04-06T11:15:51.203Z,11.07
2019-04-06T11:18:37.741Z,11.47
2019-04-06T11:21:24.046Z,11.40
2019-04-06T11:24:10.755Z,12.70
2019-04-06T11:26:44.222Z,12.40
2019-04-06T11:29:20.749Z,11.63
2019-04-06T11:32:07.181Z,11.30
2019-04-06T11:34:38.202Z,11.30
2019-04-06T11:37:11.586Z,12.43
2019-04-06T11:39:58.292Z,12.53
2019-04-06T11:42:28.650Z,12.00
2019-04-06T11:45:01.939Z,12.07
2019-04-06T11:47:41.244Z,11.50
2019-04-06T11:50:30.554Z,12.23
2019-04-06T11:53:10.140Z,11.77
2019-04-06T11:55:44.841Z,10.37
2019-04-06T11:58:30.274Z,11.70
2019-04-06T12:01:16.576Z,10.43
2019-04-06T12:03:49.874Z,10.33
2019-04-06T12:06:22.939Z,10.17
2019-04-06T12:08:59.535Z,10.07
2019-04-06T12:11:36.058Z,11.23
2019-04-06T12:14:40.869Z,10.57
2019-04-06T12:17:20.104Z,10.50
2019-04-06T12:20:07.189Z,11.00
2019-04-06T12:22:40.403Z,10.13
2019-04-06T12:25:11.218Z,9.53
2019-04-06T12:27:41.572Z,10.77
2019-04-06T12:33:16.684Z,10.47
2019-04-06T12:35:58.883Z,10.07
2019-04-06T12:38:38.343Z,9.93
2019-04-06T12:41:11.484Z,9.60
2019-04-06T12:43:47.756Z,10.27
2019-04-06T12:46:33.491Z,9.17
2019-04-06T12:49:04.308Z,9.90
2019-04-06T12:51:53.049Z,8.97
2019-04-06T12:54:39.778Z,9.23
2019-04-06T12:57:12.777Z,9.07
2019-04-06T12:59:51.600Z,9.77
2019-04-06T13:02:22.155Z,8.93
2019-04-06T13:05:15.323Z,8.97
2019-04-06T13:07:51.453Z,9.37
2019-04-06T13:10:34.041Z,9.47
2019-04-06T13:13:20.212Z,9.20
2019-04-06T13:16:02.739Z,9.43
2019-04-06T13:18:36.035Z,9.73
2019-04-06T13:21:07.106Z,9.53
2019-04-06T13:23:37.460Z,8.57
2019-04-06T13:26:17.356Z,9.13
2019-04-06T13:28:52.879Z,8.93
2019-04-06T13:31:39.441Z,9.63
2019-04-06T13:34:12.683Z,9.83
2019-04-06T13:36:42.958Z,9.33
2019-04-06T13:39:25.807Z,9.80
2019-04-06T13:42:12.405Z,9.60
2019-04-06T13:44:51.707Z,9.37
2019-04-06T13:47:21.922Z,9.20
2019-04-06T13:49:52.238Z,8.97
2019-04-06T13:52:23.182Z,9.17
2019-04-06T13:55:03.104Z,9.80
2019-04-06T13:57:37.013Z,9.33
2019-04-06T14:00:09.157Z,9.33
2019-04-06T14:02:39.451Z,8.50
2019-04-06T14:05:26.011Z,10.67
2019-04-06T14:08:02.288Z,8.67
2019-04-06T14:10:35.323Z,9.17
2019-04-06T14:13:21.872Z,10.37
2019-04-06T14:15:55.007Z,9.87
2019-04-06T14:18:41.441Z,10.47
2019-04-06T14:21:17.700Z,8.80
2019-04-06T14:23:51.104Z,8.53
2019-04-06T14:26:28.680Z,9.37
2019-04-06T14:29:13.786Z,9.27
2019-04-06T14:31:50.088Z,9.43
2019-04-06T14:34:36.489Z,9.43
2019-04-06T14:37:12.903Z,9.53
2019-04-06T14:39:49.550Z,8.30
2019-04-06T14:42:36.106Z,9.77
2019-04-06T14:45:08.355Z,9.47
2019-04-06T14:47:44.077Z,9.17
2019-04-06T14:50:23.581Z,8.53
2019-04-06T14:52:59.786Z,9.43
2019-04-06T14:55:39.102Z,9.30
2019-04-06T14:58:14.997Z,8.80
2019-04-06T15:00:45.254Z,9.20
2019-04-06T15:03:31.871Z,9.23
2019-04-06T15:06:17.123Z,8.77
2019-04-06T15:08:53.504Z,9.70
2019-04-06T15:11:39.891Z,8.03
2019-04-06T15:14:28.241Z,8.97
2019-04-06T15:17:10.600Z,8.20
2019-04-06T15:19:41.258Z,7.97
2019-04-06T15:22:29.815Z,7.53
2019-04-06T15:25:16.147Z,7.43
2019-04-06T15:27:59.792Z,8.07
2019-04-06T15:30:46.539Z,7.20
2019-04-06T15:33:35.302Z,7.77
2019-04-06T15:36:05.865Z,7.67
2019-04-06T15:38:52.896Z,6.93
2019-04-06T15:41:26.324Z,7.43
2019-04-06T15:43:56.674Z,7.53
2019-04-06T15:46:41.629Z,8.03
2019-04-06T15:49:24.428Z,8.23
2019-04-06T15:52:15.332Z,7.23
2019-04-06T15:54:45.919Z,7.73
2019-04-06T15:57:25.234Z,7.40
2019-04-06T16:00:14.642Z,6.93
2019-04-06T16:03:00.071Z,7.57
2019-04-06T16:05:32.989Z,7.80
2019-04-06T16:08:09.156Z,8.50
2019-04-06T16:10:51.268Z,7.60
2019-04-06T16:13:27.988Z,7.87
2019-04-06T16:16:07.714Z,8.30
2019-04-06T16:18:54.551Z,8.17
2019-04-06T16:21:27.849Z,7.57
2019-04-06T16:24:04.820Z,7.87
2019-04-06T16:26:35.313Z,8.80
2019-04-06T16:29:09.168Z,7.63
2019-04-06T16:31:42.184Z,8.17
2019-04-06T16:34:21.386Z,8.77
2019-04-06T16:37:10.040Z,7.90
2019-04-06T16:39:43.518Z,7.37
2019-04-06T16:42:19.723Z,7.67
2019-04-06T16:45:06.378Z,7.77
2019-04-06T16:47:51.913Z,7.93
2019-04-06T16:50:22.503Z,7.00
2019-04-06T16:52:53.262Z,7.83
2019-04-06T16:55:38.820Z,7.07
2019-04-06T16:58:17.975Z,7.57
2019-04-06T17:00:54.378Z,8.33
2019-04-06T17:03:37.022Z,7.47
2019-04-06T17:06:22.618Z,7.47
2019-04-06T17:08:53.071Z,7.70
2019-04-06T17:11:26.736Z,8.13
2019-04-06T17:13:57.033Z,8.00
2019-04-06T17:16:42.301Z,7.83
2019-04-06T17:19:15.803Z,7.50
2019-04-06T17:21:49.115Z,7.10
2019-04-06T17:24:22.280Z,7.73
2019-04-06T17:27:01.629Z,7.20
2019-04-06T17:29:31.830Z,7.80
2019-04-06T17:32:02.282Z,8.43
2019-04-06T17:34:35.294Z,7.87
2019-04-06T17:37:11.078Z,8.53
2019-04-06T17:39:50.537Z,8.47
2019-04-06T17:42:23.509Z,9.93
2019-04-06T17:44:59.201Z,10.50
2019-04-06T17:47:32.852Z,9.37
2019-04-06T17:50:20.009Z,9.97
2019-04-06T17:52:59.120Z,9.63
2019-04-06T17:55:34.192Z,8.17
2019-04-06T17:58:10.015Z,8.57
2019-04-06T18:00:56.248Z,8.67
2019-04-06T18:03:42.988Z,9.63
2019-04-06T18:06:16.351Z,8.43
2019-04-06T18:09:00.374Z,8.77
2019-04-06T18:11:36.367Z,8.97
2019-04-06T18:14:07.323Z,8.80
2019-04-06T18:16:36.448Z,8.20
2019-04-06T18:19:05.847Z,9.27
2019-04-06T18:21:36.984Z,9.17
2019-04-06T18:24:05.931Z,8.37
2019-04-06T18:26:34.576Z,8.60
2019-04-06T18:29:03.863Z,8.93
2019-04-06T18:31:37.112Z,9.10
2019-04-06T18:34:05.660Z,8.60
2019-04-06T18:36:42.183Z,10.57
2019-04-06T18:39:15.434Z,8.10
2019-04-06T18:41:44.425Z,8.17
2019-04-06T18:44:13.067Z,8.10
2019-04-06T18:46:43.756Z,8.90
2019-04-06T18:49:12.631Z,8.27
2019-04-06T18:51:42.440Z,8.93
2019-04-06T18:54:11.057Z,9.73
2019-04-06T18:56:40.097Z,9.53
2019-04-06T18:59:09.351Z,9.63
2019-04-06T19:01:38.343Z,10.67
2019-04-06T19:04:19.219Z,10.33
2019-04-06T19:06:48.150Z,9.30
2019-04-06T19:09:23.061Z,9.93
2019-04-06T19:11:54.418Z,10.93
2019-04-06T19:14:17.919Z,10.77
2019-04-06T19:16:46.616Z,10.80
2019-04-06T19:19:15.295Z,12.93
2019-04-06T19:21:44.455Z,10.60
2019-04-06T19:24:14.161Z,9.67
2019-04-06T19:26:42.747Z,9.47
2019-04-06T19:29:11.407Z,9.93
2019-04-06T19:31:40.082Z,10.37
2019-04-06T19:34:09.093Z,9.90
2019-04-06T19:36:37.972Z,9.40
2019-04-06T19:39:09.675Z,9.83
2019-04-06T19:41:38.395Z,10.33
2019-04-06T19:44:07.172Z,10.03
2019-04-06T19:46:35.712Z,10.00
2019-04-06T19:49:04.619Z,9.43
2019-04-06T19:51:33.187Z,9.27
2019-04-06T19:54:04.680Z,10.20
2019-04-06T19:56:32.420Z,10.50
2019-04-06T19:59:01.064Z,9.97
2019-04-06T20:01:29.759Z,10.23
2019-04-06T20:04:00.134Z,11.57
2019-04-06T20:06:28.901Z,11.83
2019-04-06T20:08:57.893Z,12.60
2019-04-06T20:11:26.658Z,11.40
2019-04-06T20:13:55.376Z,11.67
2019-04-06T20:16:24.000Z,11.43
2019-04-06T20:18:53.252Z,11.23
2019-04-06T20:21:22.107Z,10.37
2019-04-06T20:23:50.682Z,11.73
2019-04-06T20:26:19.674Z,10.23
2019-04-06T20:28:48.363Z,10.97
2019-04-06T20:31:17.025Z,10.87
2019-04-06T20:33:50.903Z,12.30
2019-04-06T20:36:16.019Z,13.33
2019-04-06T20:38:44.671Z,12.83
2019-04-06T20:41:13.697Z,12.20
2019-04-06T20:43:42.325Z,11.83
2019-04-06T20:46:11.019Z,13.33
2019-04-06T20:48:40.080Z,13.13
2019-04-06T20:51:09.102Z,12.73
2019-04-06T20:53:38.104Z,12.47
2019-04-06T20:56:07.056Z,13.73
2019-04-06T20:58:35.940Z,12.50
2019-04-06T21:01:04.884Z,13.40
2019-04-06T21:03:33.602Z,13.43
2019-04-06T21:06:02.829Z,13.47
2019-04-06T21:08:32.039Z,14.33
2019-04-06T21:11:01.783Z,14.47
2019-04-06T21:13:30.415Z,13.27
2019-04-06T21:15:59.344Z,13.47
2019-04-06T21:18:28.710Z,13.30
2019-04-06T21:20:57.674Z,14.70
2019-04-06T21:23:26.363Z,13.40
2019-04-06T21:25:54.994Z,13.50
2019-04-06T21:28:24.543Z,14.13
2019-04-06T21:30:53.374Z,12.67
2019-04-06T21:33:22.119Z,13.77
2019-04-06T21:35:51.615Z,14.70
2019-04-06T21:38:20.252Z,15.47
2019-04-06T21:40:49.047Z,14.63
2019-04-06T21:43:17.869Z,14.93
2019-04-06T21:45:46.958Z,14.57
2019-04-06T21:48:16.090Z,15.20
2019-04-06T21:50:45.215Z,14.73
2019-04-06T21:53:14.109Z,14.77
2019-04-06T21:55:43.461Z,13.50
2019-04-06T21:58:12.176Z,14.23
2019-04-06T22:00:51.478Z,13.50
2019-04-06T22:03:20.828Z,13.73
2019-04-06T22:05:50.497Z,14.27
2019-04-06T22:08:19.471Z,12.60
2019-04-06T22:10:48.324Z,13.67
2019-04-06T22:13:16.952Z,12.47
2019-04-06T22:15:46.207Z,13.40
2019-04-06T22:18:15.091Z,13.10
2019-04-06T22:20:43.847Z,12.77
2019-04-06T22:23:13.112Z,14.07
2019-04-06T22:25:41.676Z,12.83
2019-04-06T22:28:12.569Z,13.10
2019-04-06T22:30:41.744Z,12.07
2019-04-06T22:33:10.870Z,12.33
2019-04-06T22:35:39.498Z,12.27
2019-04-06T22:38:08.214Z,11.80
2019-04-06T22:40:37.058Z,12.53
2019-04-06T22:43:06.623Z,11.83
2019-04-06T22:45:35.928Z,12.77
2019-04-06T22:48:05.256Z,13.47
2019-04-06T22:50:33.964Z,12.20
2019-04-06T22:53:02.688Z,11.80
2019-04-06T22:55:50.932Z,12.40
2019-04-06T22:58:19.705Z,12.10
2019-04-06T23:00:50.510Z,11.13
2019-04-06T23:03:23.984Z,11.63
2019-04-06T23:05:54.490Z,11.90
2019-04-06T23:08:23.507Z,12.33
2019-04-06T23:10:52.368Z,12.10
2019-04-06T23:13:21.458Z,12.63
2019-04-06T23:15:50.825Z,11.57
2019-04-06T23:18:19.769Z,13.03
2019-04-06T23:20:48.487Z,10.53
2019-04-06T23:23:18.204Z,12.87
2019-04-06T23:25:47.200Z,11.47
2019-04-06T23:28:16.785Z,13.03
2019-04-06T23:30:45.390Z,12.37
2019-04-06T23:33:14.305Z,11.20
2019-04-06T23:35:43.065Z,11.57
2019-04-06T23:38:12.271Z,11.70
2019-04-06T23:40:41.034Z,11.53
2019-04-06T23:43:09.736Z,11.10
2019-04-06T23:45:39.385Z,11.87
2019-04-06T23:48:13.540Z,11.00
2019-04-06T23:50:42.531Z,10.93
2019-04-06T23:53:11.167Z,11.90
2019-04-06T23:55:39.949Z,10.50
2019-04-06T23:58:08.723Z,10.90
